Time;durP1;ratioP1;P1;durP2;ratioP2;P2;SDS_P1;SDS_P2;PMS_P1;PMS_P2;Temp;Humidity;BMP_temperature;BMP_pressure;BME280_temperature;BME280_humidity;BME280_pressure;Samples;Min_cycle;Max_cycle;Signal;HPM_P1;HPM_P2
2020/02/29 00:01:56;;;;;;;2.08;1.61;;;;;;;19.46;37.31;99786.45;;;;-52
2020/02/29 00:04:55;;;;;;;2.01;1.70;;;;;;;19.45;37.34;99777.51;;;;-53
2020/02/29 00:07:55;;;;;;;1.79;1.57;;;;;;;19.42;37.37;99770.34;;;;-53
2020/02/29 00:10:55;;;;;;;2.03;1.69;;;;;;;19.40;37.39;99770.17;;;;-53
2020/02/29 00:13:55;;;;;;;1.68;1.54;;;;;;;19.39;37.42;99764.02;;;;-52
2020/02/29 00:16:55;;;;;;;1.67;1.57;;;;;;;19.37;37.38;99757.95;;;;-53
2020/02/29 00:19:55;;;;;;;1.63;1.53;;;;;;;19.36;37.38;99752.30;;;;-53
2020/02/29 00:22:55;;;;;;;1.72;1.62;;;;;;;19.35;37.36;99747.91;;;;-53
2020/02/29 00:25:55;;;;;;;2.01;1.76;;;;;;;19.33;37.40;99742.48;;;;-52
2020/02/29 00:28:55;;;;;;;1.80;1.70;;;;;;;19.31;37.36;99737.62;;;;-53
2020/02/29 00:31:55;;;;;;;1.81;1.58;;;;;;;19.30;37.37;99736.69;;;;-53
2020/02/29 00:34:55;;;;;;;1.73;1.63;;;;;;;19.28;37.40;99731.94;;;;-53
2020/02/29 00:37:55;;;;;;;2.03;1.77;;;;;;;19.26;37.38;99724.77;;;;-53
2020/02/29 00:40:55;;;;;;;1.94;1.74;;;;;;;19.26;37.35;99722.83;;;;-53
2020/02/29 00:43:55;;;;;;;1.69;1.59;;;;;;;19.24;37.33;99719.58;;;;-53
2020/02/29 00:46:55;;;;;;;1.70;1.60;;;;;;;19.22;37.40;99720.62;;;;-53
2020/02/29 00:49:55;;;;;;;1.92;1.68;;;;;;;19.21;37.36;99721.75;;;;-53
2020/02/29 00:52:55;;;;;;;1.92;1.64;;;;;;;19.19;37.41;99707.62;;;;-53
2020/02/29 00:55:55;;;;;;;1.62;1.52;;;;;;;19.18;37.39;99700.33;;;;-53
2020/02/29 00:58:55;;;;;;;1.72;1.62;;;;;;;19.17;37.42;99697.12;;;;-53
2020/02/29 01:01:55;;;;;;;1.91;1.70;;;;;;;19.16;37.35;99693.53;;;;-53
2020/02/29 01:07:55;;;;;;;1.83;1.62;;;;;;;19.14;37.43;99687.61;;;;-53
2020/02/29 01:10:54;;;;;;;1.62;1.52;;;;;;;19.11;37.46;99677.80;;;;-53
2020/02/29 01:13:54;;;;;;;1.80;1.70;;;;;;;19.11;37.50;99664.72;;;;-53
2020/02/29 01:16:55;;;;;;;1.91;1.69;;;;;;;19.08;37.49;99654.44;;;;-53
2020/02/29 01:19:55;;;;;;;1.80;1.70;;;;;;;19.07;37.49;99655.75;;;;-53
2020/02/29 01:22:55;;;;;;;1.91;1.60;;;;;;;19.06;37.48;99652.36;;;;-53
2020/02/29 01:25:54;;;;;;;1.71;1.61;;;;;;;19.05;37.54;99647.38;;;;-53
2020/02/29 01:28:54;;;;;;;1.78;1.68;;;;;;;19.04;37.53;99644.10;;;;-53
2020/02/29 01:31:54;;;;;;;1.84;1.71;;;;;;;19.02;37.57;99637.34;;;;-53
2020/02/29 01:34:54;;;;;;;1.72;1.62;;;;;;;19.02;37.53;99628.37;;;;-53
2020/02/29 01:37:55;;;;;;;1.71;1.61;;;;;;;19.00;37.58;99629.81;;;;-53
2020/02/29 01:40:55;;;;;;;1.70;1.60;;;;;;;18.99;37.57;99627.70;;;;-53
2020/02/29 01:43:54;;;;;;;1.93;1.73;;;;;;;18.98;37.60;99624.39;;;;-53
2020/02/29 01:46:54;;;;;;;1.70;1.60;;;;;;;18.97;37.62;99627.97;;;;-53
2020/02/29 01:49:55;;;;;;;1.70;1.60;;;;;;;18.96;37.61;99625.00;;;;-53
2020/02/29 01:52:55;;;;;;;1.79;1.69;;;;;;;18.94;37.66;99615.33;;;;-53
2020/02/29 01:55:55;;;;;;;1.94;1.60;;;;;;;18.94;37.63;99608.97;;;;-53
2020/02/29 01:58:55;;;;;;;1.65;1.55;;;;;;;18.93;37.61;99605.19;;;;-53
2020/02/29 02:01:55;;;;;;;1.73;1.63;;;;;;;18.91;37.67;99603.11;;;;-53
2020/02/29 02:04:54;;;;;;;1.72;1.62;;;;;;;18.90;37.68;99599.56;;;;-53
2020/02/29 02:07:54;;;;;;;1.95;1.69;;;;;;;18.90;37.67;99593.88;;;;-53
2020/02/29 02:10:55;;;;;;;1.77;1.67;;;;;;;18.88;37.73;99590.70;;;;-53
2020/02/29 02:13:54;;;;;;;1.92;1.78;;;;;;;18.87;37.73;99589.59;;;;-53
2020/02/29 02:16:55;;;;;;;2.03;1.79;;;;;;;18.86;37.71;99580.59;;;;-53
2020/02/29 02:19:54;;;;;;;1.86;1.76;;;;;;;18.85;37.76;99569.92;;;;-53
2020/02/29 02:22:54;;;;;;;1.87;1.70;;;;;;;18.84;37.73;99575.91;;;;-53
2020/02/29 02:25:54;;;;;;;1.60;1.50;;;;;;;18.83;37.78;99571.03;;;;-53
2020/02/29 02:28:54;;;;;;;1.69;1.59;;;;;;;18.81;37.79;99559.39;;;;-53
2020/02/29 02:31:54;;;;;;;1.90;1.70;;;;;;;18.80;37.76;99551.16;;;;-53
2020/02/29 02:34:55;;;;;;;1.69;1.52;;;;;;;18.80;37.79;99550.89;;;;-53
2020/02/29 02:37:55;;;;;;;1.96;1.70;;;;;;;18.77;37.84;99544.37;;;;-53
2020/02/29 02:40:55;;;;;;;1.79;1.69;;;;;;;18.76;37.83;99540.99;;;;-53
2020/02/29 02:43:54;;;;;;;1.73;1.58;;;;;;;18.76;37.79;99538.72;;;;-53
2020/02/29 02:46:54;;;;;;;1.85;1.75;;;;;;;18.75;37.80;99531.73;;;;-53
2020/02/29 02:49:54;;;;;;;1.79;1.69;;;;;;;18.75;37.81;99529.39;;;;-52
2020/02/29 02:52:54;;;;;;;1.87;1.73;;;;;;;18.73;37.83;99526.75;;;;-53
2020/02/29 02:55:55;;;;;;;1.70;1.60;;;;;;;18.72;37.82;99524.61;;;;-53
2020/02/29 02:58:54;;;;;;;1.80;1.70;;;;;;;18.72;37.87;99524.61;;;;-53
2020/02/29 03:01:55;;;;;;;1.67;1.57;;;;;;;18.71;37.85;99519.76;;;;-53
2020/02/29 03:04:55;;;;;;;1.71;1.61;;;;;;;18.71;37.84;99515.58;;;;-53
2020/02/29 03:07:55;;;;;;;1.61;1.51;;;;;;;18.69;37.89;99505.71;;;;-53
2020/02/29 03:10:55;;;;;;;1.72;1.62;;;;;;;18.69;37.89;99508.05;;;;-53
2020/02/29 03:13:55;;;;;;;1.53;1.43;;;;;;;18.68;37.90;99497.25;;;;-53
2020/02/29 03:16:55;;;;;;;1.63;1.53;;;;;;;18.67;37.96;99494.45;;;;-53
2020/02/29 03:19:55;;;;;;;1.68;1.58;;;;;;;18.67;37.94;99494.38;;;;-53
2020/02/29 03:22:55;;;;;;;1.69;1.59;;;;;;;18.66;37.94;99493.08;;;;-53
2020/02/29 03:25:55;;;;;;;1.61;1.51;;;;;;;18.64;37.99;99485.92;;;;-53
2020/02/29 03:28:55;;;;;;;1.66;1.50;;;;;;;18.64;37.98;99487.98;;;;-53
2020/02/29 03:31:55;;;;;;;1.63;1.53;;;;;;;18.64;38.01;99486.25;;;;-53
2020/02/29 03:34:55;;;;;;;1.59;1.49;;;;;;;18.64;38.03;99488.16;;;;-53
2020/02/29 03:37:55;;;;;;;1.59;1.49;;;;;;;18.61;37.99;99487.49;;;;-53
2020/02/29 03:40:55;;;;;;;1.67;1.57;;;;;;;18.61;38.05;99481.91;;;;-53
2020/02/29 03:43:55;;;;;;;1.71;1.61;;;;;;;18.61;38.07;99485.59;;;;-53
2020/02/29 03:46:54;;;;;;;1.99;1.67;;;;;;;18.61;38.05;99483.65;;;;-53
2020/02/29 03:49:55;;;;;;;1.81;1.46;;;;;;;18.59;38.10;99474.38;;;;-52
2020/02/29 03:52:56;;;;;;;1.60;1.50;;;;;;;18.58;38.08;99469.17;;;;-53
2020/02/29 03:55:55;;;;;;;1.50;1.40;;;;;;;18.58;38.11;99465.39;;;;-53
2020/02/29 03:58:55;;;;;;;1.71;1.50;;;;;;;18.57;38.11;99461.21;;;;-53
2020/02/29 04:01:55;;;;;;;1.63;1.53;;;;;;;18.56;38.16;99454.56;;;;-53
2020/02/29 04:04:55;;;;;;;1.67;1.57;;;;;;;18.56;38.15;99457.13;;;;-53
2020/02/29 04:07:55;;;;;;;1.48;1.38;;;;;;;18.55;38.15;99456.20;;;;-53
2020/02/29 04:10:54;;;;;;;1.70;1.60;;;;;;;18.54;38.19;99453.42;;;;-53
2020/02/29 04:13:54;;;;;;;1.55;1.45;;;;;;;18.53;38.22;99449.21;;;;-52
2020/02/29 04:16:55;;;;;;;1.57;1.47;;;;;;;18.52;38.17;99441.32;;;;-53
2020/02/29 04:19:55;;;;;;;1.61;1.51;;;;;;;18.51;38.17;99438.45;;;;-53
2020/02/29 04:22:55;;;;;;;1.50;1.40;;;;;;;18.51;38.22;99432.16;;;;-53
2020/02/29 04:25:55;;;;;;;1.70;1.50;;;;;;;18.50;38.26;99432.03;;;;-53
2020/02/29 04:28:55;;;;;;;1.60;1.50;;;;;;;18.50;38.23;99426.18;;;;-53
2020/02/29 04:31:55;;;;;;;1.67;1.57;;;;;;;18.49;38.25;99428.59;;;;-53
2020/02/29 04:34:55;;;;;;;1.48;1.38;;;;;;;18.48;38.23;99421.70;;;;-53
2020/02/29 04:37:55;;;;;;;1.41;1.31;;;;;;;18.47;38.29;99417.42;;;;-53
2020/02/29 04:40:55;;;;;;;1.63;1.53;;;;;;;18.47;38.27;99415.66;;;;-53
2020/02/29 04:43:55;;;;;;;1.65;1.55;;;;;;;18.47;38.30;99413.98;;;;-52
2020/02/29 04:46:55;;;;;;;2.19;1.55;;;;;;;18.46;38.34;99405.75;;;;-52
2020/02/29 04:49:55;;;;;;;1.59;1.49;;;;;;;18.47;38.35;99398.77;;;;-53
2020/02/29 04:52:55;;;;;;;1.60;1.50;;;;;;;18.48;38.31;99387.59;;;;-53
2020/02/29 04:55:54;;;;;;;1.49;1.39;;;;;;;18.49;38.29;99383.95;;;;-53
2020/02/29 04:58:55;;;;;;;1.68;1.52;;;;;;;18.52;38.33;99378.09;;;;-53
2020/02/29 05:01:55;;;;;;;1.36;1.26;;;;;;;18.54;38.32;99373.74;;;;-53
2020/02/29 05:04:55;;;;;;;1.40;1.30;;;;;;;18.56;38.31;99365.78;;;;-53
2020/02/29 05:07:55;;;;;;;1.45;1.35;;;;;;;18.59;38.28;99359.52;;;;-53
2020/02/29 05:10:55;;;;;;;1.89;1.40;;;;;;;18.62;38.24;99353.75;;;;-53
2020/02/29 05:13:59;;;;;;;1.44;1.34;;;;;;;18.66;38.31;99342.84;;;;-53
2020/02/29 05:16:54;;;;;;;1.55;1.40;;;;;;;18.70;38.29;99339.34;;;;-53
2020/02/29 05:19:55;;;;;;;1.40;1.30;;;;;;;18.74;38.29;99338.36;;;;-53
2020/02/29 05:22:55;;;;;;;1.40;1.30;;;;;;;18.78;38.29;99333.39;;;;-53
2020/02/29 05:25:55;;;;;;;1.50;1.40;;;;;;;18.80;38.38;99325.02;;;;-53
2020/02/29 05:28:55;;;;;;;1.55;1.45;;;;;;;18.85;38.45;99317.38;;;;-53
2020/02/29 05:31:55;;;;;;;1.49;1.39;;;;;;;18.89;38.48;99305.95;;;;-53
2020/02/29 05:34:55;;;;;;;1.40;1.30;;;;;;;18.92;38.38;99300.08;;;;-53
2020/02/29 05:37:55;;;;;;;1.40;1.30;;;;;;;18.95;38.41;99295.81;;;;-53
2020/02/29 05:40:54;;;;;;;1.71;1.33;;;;;;;18.98;38.42;99290.54;;;;-53
2020/02/29 05:43:55;;;;;;;1.55;1.45;;;;;;;19.00;38.45;99280.22;;;;-53
2020/02/29 05:46:55;;;;;;;1.50;1.40;;;;;;;19.03;38.49;99275.62;;;;-53
2020/02/29 05:49:55;;;;;;;1.50;1.40;;;;;;;19.05;38.47;99269.55;;;;-53
2020/02/29 05:52:55;;;;;;;1.71;1.40;;;;;;;19.12;38.50;99266.73;;;;-53
2020/02/29 05:55:55;;;;;;;1.50;1.40;;;;;;;19.15;38.46;99262.39;;;;-53
2020/02/29 05:58:54;;;;;;;1.40;1.30;;;;;;;19.16;38.48;99263.35;;;;-53
2020/02/29 06:01:55;;;;;;;2.15;1.43;;;;;;;19.19;38.49;99254.72;;;;-53
2020/02/29 06:04:55;;;;;;;1.60;1.50;;;;;;;19.23;38.43;99244.19;;;;-53
2020/02/29 06:07:55;;;;;;;1.57;1.43;;;;;;;19.25;38.51;99233.96;;;;-53
2020/02/29 06:10:55;;;;;;;1.39;1.29;;;;;;;19.30;38.43;99228.47;;;;-53
2020/02/29 06:13:55;;;;;;;1.40;1.30;;;;;;;19.33;38.45;99230.78;;;;-53
2020/02/29 06:16:55;;;;;;;1.50;1.40;;;;;;;19.33;38.46;99222.45;;;;-53
2020/02/29 06:19:55;;;;;;;1.53;1.40;;;;;;;19.36;38.37;99220.55;;;;-53
2020/02/29 06:22:54;;;;;;;1.50;1.40;;;;;;;19.38;38.37;99219.46;;;;-53
2020/02/29 06:25:55;;;;;;;1.45;1.35;;;;;;;19.40;38.39;99204.61;;;;-53
2020/02/29 06:28:55;;;;;;;1.72;1.45;;;;;;;19.42;38.35;99200.78;;;;-53
2020/02/29 06:31:55;;;;;;;1.40;1.30;;;;;;;19.43;38.36;99200.30;;;;-53
2020/02/29 06:34:55;;;;;;;1.69;1.32;;;;;;;19.45;38.30;99195.27;;;;-53
2020/02/29 06:37:55;;;;;;;1.59;1.49;;;;;;;19.47;38.26;99191.79;;;;-53
2020/02/29 06:40:58;;;;;;;1.53;1.43;;;;;;;19.49;38.28;99186.98;;;;-53
2020/02/29 06:43:55;;;;;;;1.80;1.35;;;;;;;19.50;38.27;99176.86;;;;-53
2020/02/29 06:46:55;;;;;;;1.51;1.41;;;;;;;19.51;38.24;99167.52;;;;-53
2020/02/29 06:49:55;;;;;;;2.09;1.41;;;;;;;19.51;38.24;99162.41;;;;-53
2020/02/29 06:52:55;;;;;;;1.46;1.35;;;;;;;19.53;38.22;99155.09;;;;-53
2020/02/29 06:56:00;;;;;;;1.40;1.30;;;;;;;19.54;38.18;99138.38;;;;-54
2020/02/29 06:58:59;;;;;;;1.41;1.31;;;;;;;19.59;38.17;99126.51;;;;-53
2020/02/29 07:01:55;;;;;;;1.54;1.43;;;;;;;19.59;38.13;99126.60;;;;-53
2020/02/29 07:04:55;;;;;;;2.33;1.43;;;;;;;19.62;38.13;99124.05;;;;-53
2020/02/29 07:07:54;;;;;;;1.47;1.34;;;;;;;19.65;38.17;99116.99;;;;-53
2020/02/29 07:10:54;;;;;;;1.30;1.20;;;;;;;19.66;38.11;99109.34;;;;-53
2020/02/29 07:13:55;;;;;;;1.85;1.46;;;;;;;19.68;38.13;99108.28;;;;-53
2020/02/29 07:16:55;;;;;;;1.84;1.51;;;;;;;19.69;38.09;99109.11;;;;-53
2020/02/29 07:19:55;;;;;;;1.67;1.53;;;;;;;19.70;38.06;99106.31;;;;-53
2020/02/29 07:22:55;;;;;;;1.47;1.37;;;;;;;19.71;38.11;99104.73;;;;-53
2020/02/29 07:25:55;;;;;;;2.99;1.64;;;;;;;19.63;37.71;99096.71;;;;-51
2020/02/29 07:28:54;;;;;;;6.16;2.11;;;;;;;19.43;37.64;99083.20;;;;-50
2020/02/29 07:31:55;;;;;;;3.91;2.04;;;;;;;19.26;37.71;99074.55;;;;-50
2020/02/29 07:34:55;;;;;;;4.11;2.37;;;;;;;19.09;37.89;99060.59;;;;-51
2020/02/29 07:37:55;;;;;;;5.27;2.16;;;;;;;19.01;38.00;99050.10;;;;-50
2020/02/29 07:40:55;;;;;;;5.53;2.24;;;;;;;19.10;37.97;99041.45;;;;-54
2020/02/29 07:43:54;;;;;;;4.29;2.12;;;;;;;19.18;37.93;99040.76;;;;-54
2020/02/29 07:46:55;;;;;;;2.93;2.00;;;;;;;19.26;37.93;99043.52;;;;-53
2020/02/29 07:49:54;;;;;;;2.95;1.85;;;;;;;19.30;37.84;99038.82;;;;-54
2020/02/29 07:52:55;;;;;;;3.69;2.01;;;;;;;19.33;37.86;99031.42;;;;-51
2020/02/29 07:55:55;;;;;;;2.38;1.85;;;;;;;19.36;37.89;99020.34;;;;-51
2020/02/29 07:58:55;;;;;;;2.61;1.91;;;;;;;19.38;37.83;99009.70;;;;-51
2020/02/29 08:01:54;;;;;;;5.16;2.03;;;;;;;19.41;37.78;99004.39;;;;-52
2020/02/29 08:04:55;;;;;;;3.02;1.99;;;;;;;19.41;37.78;99004.91;;;;-51
2020/02/29 08:07:55;;;;;;;2.13;1.78;;;;;;;19.43;37.77;98994.34;;;;-51
2020/02/29 08:10:55;;;;;;;2.95;1.79;;;;;;;19.44;37.74;98986.06;;;;-51
2020/02/29 08:13:55;;;;;;;4.65;1.90;;;;;;;19.44;37.72;98983.22;;;;-51
2020/02/29 08:16:54;;;;;;;2.67;1.75;;;;;;;19.45;37.72;98976.44;;;;-51
2020/02/29 08:19:55;;;;;;;2.82;1.80;;;;;;;19.44;37.74;98969.12;;;;-50
2020/02/29 08:22:55;;;;;;;2.37;1.70;;;;;;;19.45;37.71;98965.97;;;;-51
2020/02/29 08:25:55;;;;;;;2.27;1.68;;;;;;;19.44;37.72;98963.02;;;;-53
2020/02/29 08:28:55;;;;;;;2.59;1.73;;;;;;;19.45;37.73;98962.21;;;;-54
2020/02/29 08:31:55;;;;;;;3.13;1.81;;;;;;;19.44;37.72;98960.69;;;;-54
2020/02/29 08:34:55;;;;;;;2.45;1.70;;;;;;;19.44;37.73;98954.90;;;;-54
2020/02/29 08:37:55;;;;;;;2.36;1.77;;;;;;;19.43;37.77;98942.95;;;;-55
2020/02/29 08:40:55;;;;;;;2.89;1.99;;;;;;;19.42;37.74;98935.39;;;;-54
2020/02/29 08:43:54;;;;;;;2.16;1.81;;;;;;;19.43;37.76;98931.77;;;;-51
2020/02/29 08:46:55;;;;;;;1.98;1.79;;;;;;;19.41;37.73;98921.52;;;;-51
2020/02/29 08:49:54;;;;;;;2.49;1.79;;;;;;;19.41;37.76;98914.33;;;;-51
2020/02/29 08:52:55;;;;;;;2.41;1.78;;;;;;;19.40;37.73;98912.47;;;;-51
2020/02/29 08:55:54;;;;;;;2.50;1.86;;;;;;;19.39;37.76;98908.36;;;;-51
2020/02/29 08:58:55;;;;;;;2.44;1.59;;;;;;;19.39;37.77;98904.94;;;;-51
2020/02/29 09:01:55;;;;;;;2.89;1.80;;;;;;;19.38;37.75;98897.52;;;;-50
2020/02/29 09:04:55;;;;;;;2.07;1.68;;;;;;;19.37;37.77;98892.44;;;;-51
2020/02/29 09:07:54;;;;;;;2.08;1.67;;;;;;;19.36;37.83;98879.07;;;;-51
2020/02/29 09:10:59;;;;;;;2.75;1.70;;;;;;;19.34;37.81;98870.69;;;;-50
2020/02/29 09:13:55;;;;;;;2.41;1.80;;;;;;;19.34;37.76;98867.61;;;;-52
2020/02/29 09:16:55;;;;;;;1.82;1.70;;;;;;;19.33;37.81;98864.88;;;;-50
2020/02/29 09:19:55;;;;;;;3.12;1.77;;;;;;;19.32;37.83;98858.59;;;;-54
2020/02/29 09:22:54;;;;;;;2.97;1.70;;;;;;;19.31;37.83;98853.73;;;;-53
2020/02/29 09:25:55;;;;;;;2.89;1.68;;;;;;;19.30;37.88;98844.07;;;;-54
2020/02/29 09:28:54;;;;;;;1.95;1.68;;;;;;;19.29;37.85;98837.05;;;;-54
2020/02/29 09:31:54;;;;;;;2.91;1.70;;;;;;;19.28;38.15;98839.34;;;;-50
2020/02/29 09:34:55;;;;;;;2.15;1.69;;;;;;;19.28;38.32;98833.68;;;;-49
2020/02/29 09:37:55;;;;;;;2.30;1.66;;;;;;;19.28;38.40;98830.07;;;;-55
2020/02/29 09:40:55;;;;;;;2.85;1.61;;;;;;;19.28;38.47;98826.63;;;;-51
2020/02/29 09:43:55;;;;;;;3.56;1.62;;;;;;;19.27;38.48;98824.36;;;;-57
2020/02/29 09:46:54;;;;;;;1.89;1.61;;;;;;;19.27;38.65;98817.26;;;;-58
2020/02/29 09:49:54;;;;;;;1.67;1.51;;;;;;;19.28;38.66;98805.73;;;;-58
2020/02/29 09:52:55;;;;;;;2.94;1.82;;;;;;;19.28;38.67;98805.30;;;;-58
2020/02/29 09:55:55;;;;;;;3.65;1.60;;;;;;;19.28;38.64;98803.46;;;;-51
2020/02/29 09:58:54;;;;;;;4.33;1.81;;;;;;;19.28;38.55;98790.91;;;;-52
2020/02/29 10:01:55;;;;;;;2.99;1.78;;;;;;;19.26;38.71;98798.06;;;;-51
2020/02/29 10:04:55;;;;;;;4.46;1.79;;;;;;;19.26;38.34;98788.80;;;;-51
2020/02/29 10:07:55;;;;;;;2.29;1.51;;;;;;;19.26;38.33;98781.00;;;;-52
2020/02/29 10:10:54;;;;;;;3.29;1.75;;;;;;;19.25;38.38;98773.29;;;;-52
2020/02/29 10:13:55;;;;;;;2.25;1.55;;;;;;;19.24;38.37;98760.71;;;;-52
2020/02/29 10:16:55;;;;;;;3.01;1.75;;;;;;;19.22;38.37;98747.80;;;;-52
2020/02/29 10:19:55;;;;;;;2.07;1.56;;;;;;;19.20;38.36;98737.88;;;;-52
2020/02/29 10:22:54;;;;;;;2.59;1.63;;;;;;;19.19;38.30;98727.41;;;;-52
2020/02/29 10:25:54;;;;;;;2.47;1.68;;;;;;;19.18;38.33;98737.28;;;;-52
2020/02/29 10:28:54;;;;;;;2.13;1.58;;;;;;;19.17;38.27;98730.33;;;;-51
2020/02/29 10:31:54;;;;;;;2.83;1.78;;;;;;;19.16;38.29;98721.31;;;;-52
2020/02/29 10:34:54;;;;;;;1.80;1.43;;;;;;;19.14;38.30;98726.92;;;;-52
2020/02/29 10:37:55;;;;;;;2.13;1.55;;;;;;;19.13;38.29;98717.05;;;;-52
2020/02/29 10:40:55;;;;;;;2.26;1.48;;;;;;;19.12;38.26;98713.05;;;;-52
2020/02/29 10:43:55;;;;;;;2.47;1.58;;;;;;;19.10;38.26;98711.00;;;;-52
2020/02/29 10:46:54;;;;;;;2.09;1.70;;;;;;;19.09;38.25;98704.29;;;;-51
2020/02/29 10:49:54;;;;;;;2.91;1.61;;;;;;;19.08;38.28;98696.48;;;;-51
2020/02/29 10:52:54;;;;;;;2.25;1.62;;;;;;;19.07;38.25;98700.67;;;;-52
2020/02/29 10:55:55;;;;;;;1.93;1.53;;;;;;;19.06;38.24;98686.43;;;;-51
2020/02/29 10:58:55;;;;;;;3.00;1.68;;;;;;;19.04;38.36;98686.53;;;;-49
2020/02/29 11:01:55;;;;;;;3.07;1.53;;;;;;;19.04;38.65;98681.78;;;;-56
2020/02/29 11:04:54;;;;;;;2.65;1.57;;;;;;;19.04;38.60;98679.27;;;;-53
2020/02/29 11:07:54;;;;;;;2.15;1.63;;;;;;;19.04;38.73;98684.05;;;;-56
2020/02/29 11:10:54;;;;;;;1.93;1.59;;;;;;;19.05;38.77;98672.86;;;;-54
2020/02/29 11:13:54;;;;;;;3.07;1.51;;;;;;;19.06;38.84;98679.20;;;;-57
2020/02/29 11:16:54;;;;;;;1.73;1.55;;;;;;;19.06;38.93;98672.79;;;;-59
2020/02/29 11:19:54;;;;;;;2.33;1.63;;;;;;;19.06;38.92;98666.92;;;;-59
2020/02/29 11:22:54;;;;;;;6.07;1.53;;;;;;;19.07;38.96;98662.94;;;;-54
2020/02/29 11:25:55;;;;;;;3.70;1.62;;;;;;;19.07;39.03;98652.82;;;;-51
2020/02/29 11:28:54;;;;;;;2.01;1.67;;;;;;;19.08;39.02;98646.29;;;;-52
2020/02/29 11:31:54;;;;;;;2.05;1.60;;;;;;;19.07;38.98;98627.20;;;;-52
2020/02/29 11:34:54;;;;;;;4.26;1.60;;;;;;;19.06;38.86;98620.09;;;;-52
2020/02/29 11:37:55;;;;;;;3.22;1.59;;;;;;;19.03;38.84;98608.59;;;;-51
2020/02/29 11:40:54;;;;;;;3.16;1.59;;;;;;;19.02;38.77;98601.55;;;;-52
2020/02/29 11:43:58;;;;;;;2.43;1.67;;;;;;;19.01;38.80;98591.73;;;;-52
2020/02/29 11:46:54;;;;;;;1.75;1.47;;;;;;;19.01;38.74;98586.05;;;;-52
2020/02/29 11:49:55;;;;;;;2.56;1.72;;;;;;;19.00;38.69;98581.69;;;;-52
2020/02/29 11:52:54;;;;;;;2.85;1.59;;;;;;;19.00;38.70;98573.48;;;;-52
2020/02/29 11:55:54;;;;;;;4.25;1.52;;;;;;;18.99;38.66;98577.32;;;;-52
2020/02/29 11:58:55;;;;;;;2.93;1.53;;;;;;;18.97;38.71;98579.05;;;;-52
2020/02/29 12:01:54;;;;;;;2.48;1.67;;;;;;;18.96;38.65;98581.04;;;;-52
2020/02/29 12:04:55;;;;;;;2.31;1.54;;;;;;;18.97;38.81;98575.45;;;;-56
2020/02/29 12:07:55;;;;;;;2.41;1.53;;;;;;;18.98;39.01;98580.65;;;;-51
2020/02/29 12:10:55;;;;;;;2.27;1.70;;;;;;;19.01;39.06;98592.07;;;;-57
2020/02/29 12:13:55;;;;;;;2.06;1.47;;;;;;;19.02;39.13;98581.38;;;;-46
2020/02/29 12:16:54;;;;;;;4.71;1.68;;;;;;;19.01;38.94;98582.20;;;;-55
2020/02/29 12:19:54;;;;;;;2.24;1.67;;;;;;;19.00;38.95;98571.48;;;;-55
2020/02/29 12:22:54;;;;;;;2.77;1.60;;;;;;;18.99;38.91;98580.09;;;;-56
2020/02/29 12:25:54;;;;;;;3.33;1.64;;;;;;;18.98;38.94;98564.76;;;;-55
2020/02/29 12:28:55;;;;;;;3.32;1.64;;;;;;;18.97;38.93;98564.58;;;;-56
2020/02/29 12:31:55;;;;;;;3.09;1.52;;;;;;;18.95;38.86;98546.84;;;;-56
2020/02/29 12:34:54;;;;;;;2.12;1.57;;;;;;;18.94;38.86;98531.83;;;;-55
2020/02/29 12:37:54;;;;;;;3.65;1.60;;;;;;;18.93;38.89;98530.48;;;;-55
2020/02/29 12:40:54;;;;;;;2.57;1.61;;;;;;;18.92;38.84;98515.42;;;;-55
2020/02/29 12:43:54;;;;;;;3.41;1.56;;;;;;;18.91;38.81;98502.02;;;;-56
2020/02/29 12:46:54;;;;;;;2.36;1.51;;;;;;;18.90;38.83;98488.45;;;;-55
2020/02/29 12:49:54;;;;;;;2.87;1.65;;;;;;;18.90;38.78;98480.67;;;;-55
2020/02/29 12:52:54;;;;;;;1.86;1.61;;;;;;;18.89;38.79;98479.17;;;;-56
2020/02/29 12:55:54;;;;;;;2.50;1.64;;;;;;;18.88;38.82;98483.23;;;;-56
2020/02/29 12:58:54;;;;;;;2.54;1.51;;;;;;;18.87;38.80;98480.22;;;;-55
2020/02/29 13:01:54;;;;;;;2.43;1.60;;;;;;;18.87;38.76;98480.75;;;;-55
2020/02/29 13:04:55;;;;;;;2.33;1.53;;;;;;;18.86;38.84;98480.70;;;;-56
2020/02/29 13:07:54;;;;;;;1.72;1.45;;;;;;;18.89;38.96;98479.41;;;;-52
2020/02/29 13:10:54;;;;;;;4.54;1.85;;;;;;;18.91;39.02;98465.97;;;;-49
2020/02/29 13:13:54;;;;;;;5.70;1.72;;;;;;;18.94;39.17;98465.68;;;;-45
2020/02/29 13:16:54;;;;;;;2.91;1.81;;;;;;;18.98;39.25;98469.50;;;;-50
2020/02/29 13:19:54;;;;;;;4.01;1.79;;;;;;;19.01;39.40;98453.23;;;;-50
2020/02/29 13:22:55;;;;;;;4.44;1.74;;;;;;;19.07;39.50;98437.18;;;;-56
2020/02/29 13:25:54;;;;;;;5.85;1.82;;;;;;;19.12;39.54;98430.39;;;;-51
2020/02/29 13:29:55;;;;;;;3.93;1.78;;;;;;;19.21;39.53;98428.10;;;;-51
2020/02/29 13:32:54;;;;;;;7.19;1.80;;;;;;;19.26;39.47;98408.16;;;;-49
2020/02/29 13:35:54;;;;;;;6.91;1.69;;;;;;;19.32;39.67;98420.02;;;;-51
2020/02/29 13:38:54;;;;;;;7.97;2.04;;;;;;;19.37;39.66;98408.59;;;;-45
2020/02/29 13:41:55;;;;;;;8.13;1.64;;;;;;;19.41;39.80;98421.63;;;;-46
2020/02/29 13:44:55;;;;;;;8.39;1.81;;;;;;;19.42;39.62;98422.55;;;;-46
2020/02/29 13:47:55;;;;;;;10.77;2.06;;;;;;;19.44;39.53;98414.29;;;;-59
2020/02/29 13:50:54;;;;;;;8.23;2.25;;;;;;;19.46;39.79;98399.59;;;;-50
2020/02/29 13:53:55;;;;;;;9.29;2.07;;;;;;;19.49;39.92;98395.70;;;;-51
2020/02/29 13:56:54;;;;;;;12.03;2.13;;;;;;;19.52;39.85;98392.45;;;;-52
2020/02/29 13:59:54;;;;;;;6.19;1.89;;;;;;;19.54;39.86;98388.80;;;;-55
2020/02/29 14:02:55;;;;;;;7.38;1.88;;;;;;;19.56;39.78;98382.28;;;;-48
2020/02/29 14:05:54;;;;;;;5.77;1.99;;;;;;;19.58;39.84;98374.52;;;;-51
2020/02/29 14:08:54;;;;;;;6.20;2.03;;;;;;;19.58;39.79;98368.66;;;;-51
2020/02/29 14:11:54;;;;;;;5.00;1.97;;;;;;;19.59;39.78;98367.16;;;;-53
2020/02/29 14:14:54;;;;;;;6.99;2.15;;;;;;;19.59;39.73;98357.45;;;;-51
2020/02/29 14:17:54;;;;;;;7.29;1.84;;;;;;;19.60;39.77;98352.84;;;;-49
2020/02/29 14:20:54;;;;;;;4.95;1.69;;;;;;;19.61;39.84;98353.11;;;;-48
2020/02/29 14:23:54;;;;;;;5.67;1.85;;;;;;;19.62;39.69;98345.60;;;;-51
2020/02/29 14:26:54;;;;;;;5.88;1.83;;;;;;;19.62;39.65;98334.95;;;;-52
2020/02/29 14:29:54;;;;;;;3.72;1.79;;;;;;;19.62;39.63;98341.83;;;;-54
2020/02/29 14:32:54;;;;;;;5.39;1.93;;;;;;;19.63;39.66;98326.52;;;;-49
2020/02/29 14:35:54;;;;;;;5.22;1.90;;;;;;;19.64;39.55;98333.89;;;;-49
2020/02/29 14:38:54;;;;;;;4.29;1.79;;;;;;;19.63;39.38;98329.79;;;;-52
2020/02/29 14:41:55;;;;;;;7.07;2.05;;;;;;;19.63;39.39;98336.31;;;;-53
2020/02/29 14:44:55;;;;;;;2.23;1.59;;;;;;;19.64;39.43;98325.28;;;;-52
2020/02/29 14:47:54;;;;;;;3.43;1.82;;;;;;;19.67;39.63;98332.48;;;;-49
2020/02/29 14:50:54;;;;;;;3.91;1.54;;;;;;;19.65;39.14;98319.07;;;;-49
2020/02/29 14:53:54;;;;;;;7.09;1.89;;;;;;;19.65;39.10;98321.08;;;;-54
2020/02/29 14:56:54;;;;;;;2.86;1.57;;;;;;;19.64;39.07;98334.23;;;;-53
2020/02/29 14:59:54;;;;;;;3.34;1.70;;;;;;;19.62;38.91;98345.59;;;;-53
2020/02/29 15:02:54;;;;;;;4.65;2.01;;;;;;;19.61;38.94;98356.72;;;;-54
2020/02/29 15:05:55;;;;;;;4.45;1.76;;;;;;;19.61;38.91;98380.64;;;;-53
2020/02/29 15:08:54;;;;;;;3.06;1.67;;;;;;;19.59;38.88;98354.77;;;;-54
2020/02/29 15:11:54;;;;;;;2.76;1.70;;;;;;;19.59;38.79;98386.34;;;;-53
2020/02/29 15:14:54;;;;;;;3.85;1.64;;;;;;;19.56;38.79;98402.05;;;;-53
2020/02/29 15:17:54;;;;;;;4.64;1.70;;;;;;;19.55;38.83;98386.87;;;;-53
2020/02/29 15:20:54;;;;;;;4.47;1.73;;;;;;;19.53;38.75;98385.94;;;;-54
2020/02/29 15:23:54;;;;;;;2.47;1.49;;;;;;;19.52;38.78;98377.96;;;;-49
2020/02/29 15:26:54;;;;;;;5.43;1.61;;;;;;;19.51;38.80;98382.74;;;;-49
2020/02/29 15:29:55;;;;;;;3.91;1.59;;;;;;;19.49;38.78;98365.08;;;;-49
2020/02/29 15:32:54;;;;;;;2.47;1.59;;;;;;;19.48;38.79;98355.92;;;;-49
2020/02/29 15:35:54;;;;;;;2.90;1.61;;;;;;;19.47;38.77;98345.45;;;;-49
2020/02/29 15:38:54;;;;;;;2.99;1.79;;;;;;;19.45;38.79;98354.55;;;;-50
2020/02/29 15:41:54;;;;;;;3.16;1.59;;;;;;;19.44;38.81;98354.47;;;;-49
2020/02/29 15:44:54;;;;;;;3.45;1.64;;;;;;;19.43;38.78;98337.80;;;;-48
2020/02/29 15:47:54;;;;;;;2.53;1.43;;;;;;;19.41;38.81;98333.78;;;;-49
2020/02/29 15:50:54;;;;;;;2.61;1.61;;;;;;;19.40;38.79;98338.70;;;;-48
2020/02/29 15:53:54;;;;;;;3.18;1.64;;;;;;;19.38;38.83;98351.06;;;;-50
2020/02/29 15:56:54;;;;;;;3.47;1.62;;;;;;;19.37;38.74;98392.55;;;;-49
2020/02/29 15:59:54;;;;;;;3.14;1.61;;;;;;;19.36;38.83;98397.06;;;;-49
2020/02/29 16:02:54;;;;;;;3.15;1.64;;;;;;;19.34;38.78;98405.23;;;;-49
2020/02/29 16:05:55;;;;;;;3.07;1.85;;;;;;;19.33;38.82;98406.30;;;;-49
2020/02/29 16:08:54;;;;;;;3.75;1.61;;;;;;;19.32;38.91;98396.52;;;;-51
2020/02/29 16:11:54;;;;;;;3.49;1.71;;;;;;;19.29;39.02;98400.73;;;;-60
2020/02/29 16:14:54;;;;;;;7.75;1.81;;;;;;;19.33;38.95;98415.95;;;;-55
2020/02/29 16:17:54;;;;;;;6.25;1.82;;;;;;;19.34;38.94;98415.86;;;;-56
2020/02/29 16:20:54;;;;;;;4.11;1.67;;;;;;;19.36;38.95;98418.75;;;;-54
2020/02/29 16:23:54;;;;;;;3.85;1.66;;;;;;;19.40;38.85;98428.50;;;;-52
2020/02/29 16:26:54;;;;;;;4.72;1.73;;;;;;;19.44;38.74;98433.55;;;;-53
2020/02/29 16:29:54;;;;;;;3.53;1.59;;;;;;;19.46;38.69;98444.38;;;;-54
2020/02/29 16:32:54;;;;;;;3.31;1.70;;;;;;;19.48;38.66;98479.13;;;;-54
2020/02/29 16:35:54;;;;;;;3.46;1.64;;;;;;;19.51;38.66;98515.09;;;;-54
2020/02/29 16:38:54;;;;;;;4.31;1.77;;;;;;;19.52;38.67;98517.00;;;;-54
2020/02/29 16:41:54;;;;;;;4.51;1.71;;;;;;;19.54;38.69;98487.06;;;;-51
2020/02/29 16:44:54;;;;;;;3.19;1.57;;;;;;;19.56;38.73;98508.77;;;;-51
2020/02/29 16:47:55;;;;;;;2.49;1.53;;;;;;;19.58;38.68;98507.87;;;;-51
2020/02/29 16:50:54;;;;;;;4.25;1.57;;;;;;;19.61;38.66;98529.43;;;;-51
2020/02/29 16:53:54;;;;;;;2.85;1.53;;;;;;;19.64;38.64;98537.34;;;;-50
2020/02/29 16:56:54;;;;;;;3.13;1.65;;;;;;;19.65;38.56;98556.53;;;;-50
2020/02/29 16:59:54;;;;;;;3.21;1.81;;;;;;;19.67;38.85;98564.23;;;;-45